Time;durP1;ratioP1;P1;durP2;ratioP2;P2;SDS_P1;SDS_P2;PMS_P1;PMS_P2;Temp;Humidity;BMP_temperature;BMP_pressure;BME280_temperature;BME280_humidity;BME280_pressure;Samples;Min_cycle;Max_cycle;Signal;HPM_P1;HPM_P2
2021/03/02 00:01:09;;;;;;;;;;;;;;;18.13;66.33;102032.38;5048893;28;1230;-73
2021/03/02 00:03:37;;;;;;;;;;;;;;;18.10;66.50;102008.75;5049188;28;798;-74
2021/03/02 00:06:04;;;;;;;;;;;;;;;18.12;66.32;102002.50;5048805;28;1244;-74
2021/03/02 00:08:30;;;;;;;;;;;;;;;18.12;66.22;102023.59;5030821;28;1750;-74
2021/03/02 00:11:00;;;;;;;;;;;;;;;18.12;66.35;102051.75;5054553;28;1980;-74
2021/03/02 00:13:28;;;;;;;;;;;;;;;18.14;66.46;102039.38;5051058;28;862;-74
2021/03/02 00:15:56;;;;;;;;;;;;;;;18.18;66.19;102038.38;5050669;28;1208;-75
2021/03/02 00:18:26;;;;;;;;;;;;;;;18.15;66.16;102020.84;5050564;28;1202;-73
2021/03/02 00:20:55;;;;;;;;;;;;;;;18.07;66.45;102019.38;5068962;28;1333;-74
2021/03/02 00:23:25;;;;;;;;;;;;;;;18.05;66.33;102021.22;5050735;28;1278;-71
2021/03/02 00:25:54;;;;;;;;;;;;;;;18.06;66.41;102017.66;5068815;28;1251;-73
2021/03/02 00:28:21;;;;;;;;;;;;;;;18.05;66.41;102013.31;5068550;28;836;-73
2021/03/02 00:30:49;;;;;;;;;;;;;;;18.13;66.31;102012.13;5068591;28;1999;-73
2021/03/02 00:33:15;;;;;;;;;;;;;;;18.14;66.18;102013.88;5069188;28;929;-74
2021/03/02 00:35:42;;;;;;;;;;;;;;;18.15;66.07;102005.03;5067283;28;1244;-73
2021/03/02 00:38:09;;;;;;;;;;;;;;;18.11;66.09;102005.19;5069037;28;1307;-73
2021/03/02 00:40:35;;;;;;;;;;;;;;;18.07;66.26;102007.06;5067382;28;1248;-72
2021/03/02 00:43:01;;;;;;;;;;;;;;;18.09;66.38;101999.13;5068907;28;1314;-72
2021/03/02 00:45:28;;;;;;;;;;;;;;;18.10;66.36;101992.91;5068300;28;1228;-73
2021/03/02 00:47:54;;;;;;;;;;;;;;;18.08;66.26;102002.66;5068994;28;1231;-72
2021/03/02 00:50:22;;;;;;;;;;;;;;;18.09;66.37;102022.88;5068938;28;1918;-72
2021/03/02 00:52:48;;;;;;;;;;;;;;;18.12;66.23;102035.94;5068491;28;1529;-74
2021/03/02 00:55:15;;;;;;;;;;;;;;;18.08;66.36;102037.81;5050596;28;1259;-74
2021/03/02 00:57:41;;;;;;;;;;;;;;;18.06;66.40;102031.72;5050389;28;1233;-73
2021/03/02 01:00:08;;;;;;;;;;;;;;;18.10;66.40;102040.38;5050494;28;1248;-74
2021/03/02 01:02:35;;;;;;;;;;;;;;;18.08;66.35;102035.19;5068753;28;1108;-74
2021/03/02 01:05:02;;;;;;;;;;;;;;;18.13;66.00;102043.78;5068828;28;1244;-73
2021/03/02 01:07:28;;;;;;;;;;;;;;;18.12;66.17;102041.22;5072659;28;999;-72
2021/03/02 01:09:55;;;;;;;;;;;;;;;18.10;66.32;102048.28;5072114;28;1933;-73
2021/03/02 01:12:26;;;;;;;;;;;;;;;18.03;66.66;102048.50;5072836;28;1537;-74
2021/03/02 01:14:53;;;;;;;;;;;;;;;18.07;66.45;102041.34;5072135;28;1384;-74
2021/03/02 01:17:19;;;;;;;;;;;;;;;18.06;66.33;102030.84;5072554;28;1031;-74
2021/03/02 01:19:46;;;;;;;;;;;;;;;18.05;66.39;102027.38;5071946;28;1272;-74
2021/03/02 01:22:12;;;;;;;;;;;;;;;18.05;66.45;102032.66;5072173;28;940;-73
2021/03/02 01:24:38;;;;;;;;;;;;;;;18.03;66.39;102026.53;5071831;28;1100;-73
2021/03/02 01:27:04;;;;;;;;;;;;;;;18.06;66.64;102030.84;5072046;28;1295;-72
2021/03/02 01:29:31;;;;;;;;;;;;;;;18.00;66.61;102024.88;5053903;28;1981;-72
2021/03/02 01:31:57;;;;;;;;;;;;;;;18.05;66.43;102021.22;5053830;28;1310;-73
2021/03/02 01:34:24;;;;;;;;;;;;;;;18.01;66.53;102008.16;5072066;28;754;-73
2021/03/02 01:36:50;;;;;;;;;;;;;;;18.04;66.24;102012.44;5053916;28;1217;-73
2021/03/02 01:39:17;;;;;;;;;;;;;;;17.97;66.62;101997.75;5071718;28;790;-74
2021/03/02 01:41:47;;;;;;;;;;;;;;;17.97;66.51;101990.69;5037059;28;1335;-74
2021/03/02 01:44:13;;;;;;;;;;;;;;;18.01;66.49;101984.41;5071636;28;1008;-73
2021/03/02 01:46:40;;;;;;;;;;;;;;;17.98;66.55;101978.38;5053827;28;1461;-74
2021/03/02 01:49:06;;;;;;;;;;;;;;;18.00;66.34;101968.63;5071583;28;816;-72
2021/03/02 01:51:32;;;;;;;;;;;;;;;18.05;66.32;101965.88;5071633;28;1902;-73
2021/03/02 01:53:59;;;;;;;;;;;;;;;18.06;66.24;101957.00;5037145;28;1440;-73
2021/03/02 01:56:25;;;;;;;;;;;;;;;18.00;66.26;101953.69;5071402;28;1146;-73
2021/03/02 01:58:54;;;;;;;;;;;;;;;18.01;66.42;101949.28;5053368;28;1346;-73
2021/03/02 02:01:20;;;;;;;;;;;;;;;18.02;66.37;101949.22;5053326;28;1232;-73
2021/03/02 02:03:51;;;;;;;;;;;;;;;17.99;66.50;101944.03;5053670;28;957;-73
2021/03/02 02:06:17;;;;;;;;;;;;;;;18.01;66.47;101949.28;5071263;28;1256;-75
2021/03/02 02:08:50;;;;;;;;;;;;;;;18.03;66.30;101942.16;5071688;28;738;-73
2021/03/02 02:11:35;;;;;;;;;;;;;;;17.99;66.40;101938.78;5053099;28;1906;-73
2021/03/02 02:14:07;;;;;;;;;;;;;;;17.99;66.31;101936.13;5070942;28;869;-73
2021/03/02 02:16:34;;;;;;;;;;;;;;;17.93;66.45;101935.50;5052003;28;1287;-73
2021/03/02 02:19:03;;;;;;;;;;;;;;;17.93;66.54;101946.06;5052839;28;1196;-73
2021/03/02 02:21:39;;;;;;;;;;;;;;;17.97;66.29;101939.75;5071263;28;1222;-73
2021/03/02 02:24:23;;;;;;;;;;;;;;;17.93;66.36;101907.34;5052665;28;1348;-73
2021/03/02 02:26:57;;;;;;;;;;;;;;;17.97;66.13;101877.34;5070787;28;1219;-72
2021/03/02 02:29:26;;;;;;;;;;;;;;;17.90;66.40;101896.91;5052703;28;1969;-73
2021/03/02 02:31:53;;;;;;;;;;;;;;;17.94;66.25;101940.72;5071028;28;1228;-73
2021/03/02 02:34:21;;;;;;;;;;;;;;;18.00;66.07;101992.38;5070587;28;1225;-72
2021/03/02 02:36:52;;;;;;;;;;;;;;;18.01;66.04;101987.06;5070858;28;1296;-73
2021/03/02 02:39:19;;;;;;;;;;;;;;;17.99;65.96;102004.69;5052608;28;1245;-73
2021/03/02 02:41:46;;;;;;;;;;;;;;;17.99;66.55;102004.69;5070596;28;1204;-71
2021/03/02 02:44:18;;;;;;;;;;;;;;;17.96;66.42;102007.44;5053424;28;822;-72
2021/03/02 02:46:46;;;;;;;;;;;;;;;17.97;66.18;102011.78;5070478;28;1311;-72
2021/03/02 02:49:13;;;;;;;;;;;;;;;17.96;66.25;102010.06;5052526;28;874;-71
2021/03/02 02:51:40;;;;;;;;;;;;;;;18.00;66.15;102024.88;5070835;28;1967;-72
2021/03/02 02:54:07;;;;;;;;;;;;;;;17.98;66.31;102024.06;5070253;28;778;-72
2021/03/02 02:56:37;;;;;;;;;;;;;;;18.01;66.28;102017.84;5070330;28;1213;-72
2021/03/02 02:59:03;;;;;;;;;;;;;;;17.97;66.20;102011.78;5069950;28;1040;-73
2021/03/02 03:01:32;;;;;;;;;;;;;;;17.99;66.30;102011.75;5052100;28;1327;-73
2021/03/02 03:04:02;;;;;;;;;;;;;;;17.96;66.35;102001.31;5035390;28;1251;-71
2021/03/02 03:06:30;;;;;;;;;;;;;;;17.96;66.31;101986.34;5069894;28;1245;-72
2021/03/02 03:08:57;;;;;;;;;;;;;;;17.96;66.14;101998.69;5069942;28;793;-72
2021/03/02 03:11:27;;;;;;;;;;;;;;;17.97;66.32;102008.28;5051555;28;2014;-72
2021/03/02 03:13:55;;;;;;;;;;;;;;;17.94;66.40;102014.53;5068541;28;987;-74
2021/03/02 03:16:23;;;;;;;;;;;;;;;17.96;66.38;102020.59;5068438;28;1244;-72
2021/03/02 03:18:52;;;;;;;;;;;;;;;17.95;66.14;102016.28;5069948;28;821;-72
2021/03/02 03:21:18;;;;;;;;;;;;;;;17.95;66.31;102023.31;5069562;28;1319;-72
2021/03/02 03:23:47;;;;;;;;;;;;;;;17.90;66.50;102036.63;5069678;28;758;-73
2021/03/02 03:26:14;;;;;;;;;;;;;;;17.94;66.38;102027.72;5069724;28;1317;-72
2021/03/02 03:28:42;;;;;;;;;;;;;;;17.97;66.34;102026.75;5067954;28;1507;-73
2021/03/02 03:31:10;;;;;;;;;;;;;;;17.93;66.50;102012.81;5069554;28;1910;-73
2021/03/02 03:33:39;;;;;;;;;;;;;;;17.95;66.35;102007.50;5069591;28;1091;-73
2021/03/02 03:36:06;;;;;;;;;;;;;;;17.90;66.40;102002.38;5069349;28;1228;-73
2021/03/02 03:38:32;;;;;;;;;;;;;;;17.91;66.27;102004.09;5051302;28;1332;-76
2021/03/02 03:40:58;;;;;;;;;;;;;;;17.87;66.45;102013.00;5069241;28;1300;-72
2021/03/02 03:43:24;;;;;;;;;;;;;;;17.89;66.25;102007.69;5069691;28;1094;-74
2021/03/02 03:45:51;;;;;;;;;;;;;;;17.93;66.38;102012.81;5069237;28;1327;-74
2021/03/02 03:48:17;;;;;;;;;;;;;;;17.90;66.53;102017.34;5069206;28;790;-74
2021/03/02 03:50:43;;;;;;;;;;;;;;;17.92;66.47;102019.00;5069104;28;1918;-75
2021/03/02 03:53:11;;;;;;;;;;;;;;;17.93;66.64;102017.25;5069569;28;1067;-75
2021/03/02 03:55:40;;;;;;;;;;;;;;;17.92;66.39;102011.09;5069073;28;1229;-75
2021/03/02 03:58:09;;;;;;;;;;;;;;;17.91;66.22;102016.41;5069569;28;1195;-73
2021/03/02 04:00:36;;;;;;;;;;;;;;;17.91;66.26;102017.28;5069269;28;1280;-73
2021/03/02 04:03:03;;;;;;;;;;;;;;;17.89;66.38;102008.56;5069525;28;1302;-74
2021/03/02 04:05:30;;;;;;;;;;;;;;;17.92;66.53;102012.88;5068996;28;1270;-73
2021/03/02 04:07:57;;;;;;;;;;;;;;;17.90;66.45;102005.00;5069423;28;1147;-74
2021/03/02 04:10:24;;;;;;;;;;;;;;;17.90;66.47;102007.63;5068740;28;1910;-74
2021/03/02 04:12:50;;;;;;;;;;;;;;;17.87;66.58;102004.25;5051224;28;1168;-73
2021/03/02 04:15:31;;;;;;;;;;;;;;;17.87;66.62;101999.00;5069006;28;1335;-73
2021/03/02 04:17:58;;;;;;;;;;;;;;;17.90;66.35;101998.88;5068749;28;1295;-73
2021/03/02 04:20:24;;;;;;;;;;;;;;;17.92;66.50;102003.19;5050898;28;1323;-72
2021/03/02 04:22:51;;;;;;;;;;;;;;;17.91;66.38;102001.47;5050893;28;1416;-75
2021/03/02 04:25:17;;;;;;;;;;;;;;;17.91;66.35;102004.09;5050769;28;1216;-73
2021/03/02 04:27:43;;;;;;;;;;;;;;;17.90;66.42;102009.44;5069124;28;1087;-72
2021/03/02 04:30:10;;;;;;;;;;;;;;;17.91;66.27;101998.81;5067139;28;1980;-72
2021/03/02 04:32:36;;;;;;;;;;;;;;;17.85;66.45;101999.03;5069075;28;1043;-73
2021/03/02 04:35:03;;;;;;;;;;;;;;;17.89;66.28;101998.03;5050912;28;1220;-72
2021/03/02 04:37:30;;;;;;;;;;;;;;;17.88;66.21;101996.28;5068752;28;1135;-73
2021/03/02 04:39:56;;;;;;;;;;;;;;;17.89;66.20;101987.47;5068839;28;1236;-72
2021/03/02 04:42:22;;;;;;;;;;;;;;;17.88;66.48;101996.28;5055001;28;1434;-72
2021/03/02 04:44:48;;;;;;;;;;;;;;;17.89;66.24;101991.88;5054818;28;1237;-72
2021/03/02 04:47:14;;;;;;;;;;;;;;;17.90;65.99;102002.38;5073407;28;1124;-72
2021/03/02 04:49:41;;;;;;;;;;;;;;;17.89;66.28;102008.56;5072985;28;1975;-74
2021/03/02 04:52:07;;;;;;;;;;;;;;;17.89;66.07;102005.94;5072930;28;1330;-72
2021/03/02 04:54:33;;;;;;;;;;;;;;;17.89;66.22;102010.34;5072446;28;784;-72
2021/03/02 04:56:59;;;;;;;;;;;;;;;17.86;66.16;102007.81;5072855;28;1232;-72
2021/03/02 04:59:26;;;;;;;;;;;;;;;17.88;66.14;102004.19;5072529;28;802;-73
2021/03/02 05:01:52;;;;;;;;;;;;;;;17.87;65.99;102007.75;5072852;28;1244;-73
2021/03/02 05:04:18;;;;;;;;;;;;;;;17.83;66.31;102008.78;5072335;28;1189;-73
2021/03/02 05:06:45;;;;;;;;;;;;;;;17.89;66.09;102012.97;5072786;28;1201;-74
2021/03/02 05:09:11;;;;;;;;;;;;;;;17.85;65.99;102006.06;5072415;28;788;-73
2021/03/02 05:11:37;;;;;;;;;;;;;;;17.81;66.35;102000.03;5072558;28;2040;-72
2021/03/02 05:14:04;;;;;;;;;;;;;;;17.85;66.17;101992.91;5054226;28;1181;-73
2021/03/02 05:16:30;;;;;;;;;;;;;;;17.85;65.97;101991.13;5072251;28;1241;-73
2021/03/02 05:18:56;;;;;;;;;;;;;;;17.83;66.20;101981.53;5072506;28;834;-74
2021/03/02 05:21:23;;;;;;;;;;;;;;;17.83;66.15;101977.16;5072019;28;1221;-74
2021/03/02 05:23:49;;;;;;;;;;;;;;;17.82;66.01;101996.50;5072071;28;779;-73
2021/03/02 05:26:15;;;;;;;;;;;;;;;17.80;65.87;102006.25;5054331;28;1178;-72
2021/03/02 05:28:42;;;;;;;;;;;;;;;17.82;66.11;101996.50;5072011;28;966;-74
2021/03/02 05:31:08;;;;;;;;;;;;;;;17.83;66.02;101994.72;5071893;28;1906;-73
2021/03/02 05:33:34;;;;;;;;;;;;;;;17.85;66.01;101996.41;5072145;28;896;-74
2021/03/02 05:36:01;;;;;;;;;;;;;;;17.83;65.82;101997.38;5054211;28;1303;-75
2021/03/02 05:38:27;;;;;;;;;;;;;;;17.81;65.96;101992.13;5072060;28;774;-75
2021/03/02 05:40:54;;;;;;;;;;;;;;;17.82;66.01;102004.41;5072236;28;1237;-75
2021/03/02 05:43:20;;;;;;;;;;;;;;;17.83;65.99;102008.78;5053812;28;1093;-73
2021/03/02 05:45:46;;;;;;;;;;;;;;;17.81;66.08;102002.66;5053846;28;1567;-72
2021/03/02 05:48:13;;;;;;;;;;;;;;;17.80;66.06;102008.88;5071907;28;1042;-75
2021/03/02 05:50:40;;;;;;;;;;;;;;;17.79;65.89;102011.53;5071623;28;1980;-75
2021/03/02 05:53:07;;;;;;;;;;;;;;;17.81;65.87;102004.47;5071773;28;1143;-74
2021/03/02 05:55:33;;;;;;;;;;;;;;;17.80;65.81;102010.66;5071709;28;1221;-75
2021/03/02 05:58:03;;;;;;;;;;;;;;;17.81;65.88;102022.94;5072008;28;1248;-74
2021/03/02 06:00:30;;;;;;;;;;;;;;;17.79;65.98;102022.97;5053746;28;1225;-73
2021/03/02 06:02:56;;;;;;;;;;;;;;;17.76;65.91;102025.69;5053897;28;1284;-71
2021/03/02 06:05:22;;;;;;;;;;;;;;;17.75;65.88;102009.94;5071520;28;1225;-73
2021/03/02 06:07:48;;;;;;;;;;;;;;;17.76;66.72;102019.56;5071843;28;886;-72
2021/03/02 06:10:18;;;;;;;;;;;;;;;17.74;66.15;102019.63;5053640;28;1913;-73
2021/03/02 06:12:52;;;;;;;;;;;;;;;17.83;65.94;102029.00;5071314;28;1336;-74
2021/03/02 06:15:20;;;;;;;;;;;;;;;17.86;65.51;102035.03;5071134;28;1363;-74
2021/03/02 06:18:11;;;;;;;;;;;;;;;17.89;65.31;102049.88;5071317;28;965;-74
2021/03/02 06:20:39;;;;;;;;;;;;;;;17.86;65.35;102042.94;5071674;28;1366;-72
2021/03/02 06:23:18;;;;;;;;;;;;;;;17.86;65.60;102045.56;5053084;28;1203;-73
2021/03/02 06:25:44;;;;;;;;;;;;;;;17.88;65.41;102048.16;5071212;28;1193;-74
2021/03/02 06:28:11;;;;;;;;;;;;;;;17.88;65.48;102049.00;5071568;28;1290;-74
2021/03/02 06:30:37;;;;;;;;;;;;;;;17.87;65.45;102049.09;5070951;28;2001;-75
2021/03/02 06:33:04;;;;;;;;;;;;;;;17.79;66.26;102044.03;5071734;28;1282;-72
2021/03/02 06:35:34;;;;;;;;;;;;;;;17.74;65.97;102039.84;5052912;28;1212;-70
2021/03/02 06:38:01;;;;;;;;;;;;;;;17.73;66.79;102054.78;5070626;28;1172;-69
2021/03/02 06:40:46;;;;;;;;;;;;;;;17.80;66.14;102055.44;5070294;28;1220;-71
2021/03/02 06:43:33;;;;;;;;;;;;;;;17.87;65.92;102057.81;5052600;28;1234;-70
2021/03/02 06:46:01;;;;;;;;;;;;;;;17.81;66.43;102068.56;5069990;28;1244;-71
2021/03/02 06:48:28;;;;;;;;;;;;;;;17.87;66.23;102072.81;5052382;28;1350;-71
2021/03/02 06:50:55;;;;;;;;;;;;;;;17.95;65.90;102078.69;5051715;28;1902;-71
2021/03/02 06:53:21;;;;;;;;;;;;;;;17.93;66.05;102083.16;5069906;28;783;-70
2021/03/02 06:55:48;;;;;;;;;;;;;;;17.81;66.22;102078.28;5069387;28;1201;-74
2021/03/02 06:58:17;;;;;;;;;;;;;;;17.84;66.36;102078.19;5070162;28;1151;-77
2021/03/02 07:00:44;;;;;;;;;;;;;;;17.85;66.68;102083.38;5070419;28;1300;-74
2021/03/02 07:03:25;;;;;;;;;;;;;;;17.78;66.12;102083.66;5081133;28;1362;-79
2021/03/02 07:05:53;;;;;;;;;;;;;;;17.73;66.24;102085.53;5089642;28;1232;-79
2021/03/02 07:08:19;;;;;;;;;;;;;;;17.82;66.04;102086.13;5090147;28;1408;-79
2021/03/02 07:10:50;;;;;;;;;;;;;;;17.76;66.48;102086.31;5082118;28;1910;-79
2021/03/02 07:13:20;;;;;;;;;;;;;;;17.76;66.39;102094.22;5089843;28;1066;-76
2021/03/02 07:15:47;;;;;;;;;;;;;;;17.80;66.03;102102.91;5070988;28;1796;-78
2021/03/02 07:18:15;;;;;;;;;;;;;;;17.80;66.12;102102.91;5089702;28;1176;-80
2021/03/02 07:20:47;;;;;;;;;;;;;;;17.78;66.24;102092.38;5070759;28;1311;-76
2021/03/02 07:23:16;;;;;;;;;;;;;;;17.78;66.57;102104.72;5071180;28;958;-76
2021/03/02 07:25:43;;;;;;;;;;;;;;;17.76;66.68;102102.13;5070986;28;1315;-77
2021/03/02 07:28:10;;;;;;;;;;;;;;;17.83;66.96;102110.72;5089308;28;1231;-81
2021/03/02 07:30:36;;;;;;;;;;;;;;;17.91;66.28;102112.19;5071184;28;1909;-74
2021/03/02 07:33:04;;;;;;;;;;;;;;;17.89;67.13;102121.91;5089170;28;1257;-71
2021/03/02 07:35:30;;;;;;;;;;;;;;;17.84;67.53;102121.19;5070646;28;1228;-70
2021/03/02 07:38:13;;;;;;;;;;;;;;;17.79;67.41;102138.94;5070726;28;1430;-72
2021/03/02 07:40:48;;;;;;;;;;;;;;;17.79;67.21;102138.94;5088486;28;1267;-73
2021/03/02 07:43:26;;;;;;;;;;;;;;;17.77;67.10;102146.03;5089254;28;964;-75
2021/03/02 07:45:53;;;;;;;;;;;;;;;17.79;66.89;102157.38;5070562;28;1204;-70
2021/03/02 07:48:28;;;;;;;;;;;;;;;17.79;67.07;102153.88;5088687;28;766;-73
2021/03/02 07:51:10;;;;;;;;;;;;;;;17.84;66.93;102146.72;5087500;28;1913;-73
2021/03/02 07:53:37;;;;;;;;;;;;;;;17.89;66.56;102158.81;5089642;28;825;-72
2021/03/02 07:56:12;;;;;;;;;;;;;;;17.78;66.63;102158.28;5089212;28;1224;-72
2021/03/02 07:58:39;;;;;;;;;;;;;;;17.74;66.53;102150.53;5089785;28;1029;-70
2021/03/02 08:01:18;;;;;;;;;;;;;;;17.72;66.45;102140.03;5071261;28;1267;-74
2021/03/02 08:03:44;;;;;;;;;;;;;;;17.70;66.66;102149.75;5070784;28;809;-73
2021/03/02 08:06:29;;;;;;;;;;;;;;;17.69;66.50;102155.94;5070668;28;1331;-74
2021/03/02 08:08:55;;;;;;;;;;;;;;;17.70;66.31;102155.03;5073169;28;1487;-72
2021/03/02 08:11:27;;;;;;;;;;;;;;;17.70;66.29;102162.94;5093115;28;1914;-74
2021/03/02 08:13:54;;;;;;;;;;;;;;;17.70;66.36;102160.28;5086948;28;1296;-74
2021/03/02 08:16:40;;;;;;;;;;;;;;;17.69;66.54;102168.25;5067544;28;1335;-74
2021/03/02 08:19:25;;;;;;;;;;;;;;;17.70;66.38;102177.88;5083835;28;1276;-74
2021/03/02 08:21:52;;;;;;;;;;;;;;;17.71;66.20;102187.53;5089440;28;1256;-72
2021/03/02 08:24:38;;;;;;;;;;;;;;;17.69;66.38;102182.28;5089251;28;766;-73
2021/03/02 08:27:05;;;;;;;;;;;;;;;17.68;66.08;102187.59;5103952;28;1425;-71
2021/03/02 08:29:31;;;;;;;;;;;;;;;17.69;66.35;102181.44;5087603;28;766;-72
2021/03/02 08:31:57;;;;;;;;;;;;;;;17.69;66.13;102195.47;5087428;28;1977;-70
2021/03/02 08:34:24;;;;;;;;;;;;;;;17.71;66.11;102208.59;5087509;28;814;-72
2021/03/02 08:36:51;;;;;;;;;;;;;;;17.69;66.20;102215.69;5087761;28;1248;-72
2021/03/02 08:39:18;;;;;;;;;;;;;;;17.69;66.32;102227.06;5052778;28;1243;-72
2021/03/02 08:41:46;;;;;;;;;;;;;;;17.67;66.23;102233.31;5087254;28;1337;-72
2021/03/02 08:44:20;;;;;;;;;;;;;;;17.68;66.04;102241.19;5083225;28;1264;-69
2021/03/02 08:46:54;;;;;;;;;;;;;;;17.66;66.26;102236.88;5049028;28;1384;-70
2021/03/02 08:49:21;;;;;;;;;;;;;;;17.68;66.41;102245.59;5067401;28;762;-70
2021/03/02 08:51:48;;;;;;;;;;;;;;;17.68;66.41;102240.31;5049026;28;2009;-70
2021/03/02 08:54:14;;;;;;;;;;;;;;;17.72;65.78;102237.53;5032334;28;1404;-68
2021/03/02 08:56:41;;;;;;;;;;;;;;;17.65;65.96;102241.28;5048874;28;1342;-68
2021/03/02 08:59:09;;;;;;;;;;;;;;;17.83;66.20;102250.41;5048899;28;1181;-70
2021/03/02 09:01:35;;;;;;;;;;;;;;;17.81;65.54;102253.06;5048525;28;1343;-68
2021/03/02 09:04:16;;;;;;;;;;;;;;;17.79;66.09;102261.94;5048752;28;786;-68
2021/03/02 09:06:46;;;;;;;;;;;;;;;17.79;65.49;102249.63;5079120;28;1322;-73
2021/03/02 09:09:14;;;;;;;;;;;;;;;17.76;65.17;102256.75;5071249;28;1454;-71
2021/03/02 09:11:41;;;;;;;;;;;;;;;17.73;64.89;102263.00;5094935;28;1905;-73
2021/03/02 09:14:23;;;;;;;;;;;;;;;17.72;64.95;102274.44;5087140;28;1125;-70
2021/03/02 09:16:51;;;;;;;;;;;;;;;17.71;64.72;102272.72;5077164;28;1518;-78
2021/03/02 09:19:33;;;;;;;;;;;;;;;17.70;64.57;102265.72;5069831;28;1055;-76
2021/03/02 09:21:59;;;;;;;;;;;;;;;17.66;64.69;102269.34;5066629;28;1261;-73
2021/03/02 09:24:46;;;;;;;;;;;;;;;17.68;64.68;102271.94;5084974;28;1240;-73
2021/03/02 09:27:14;;;;;;;;;;;;;;;17.66;64.38;102284.31;5075742;28;1508;-74
2021/03/02 09:29:45;;;;;;;;;;;;;;;17.71;64.14;102266.59;5087806;28;1229;-72
2021/03/02 09:32:12;;;;;;;;;;;;;;;17.69;64.14;102279.78;5080431;28;1925;-77
2021/03/02 09:34:43;;;;;;;;;;;;;;;17.68;63.93;102259.63;5064126;28;1205;-77
2021/03/02 09:37:15;;;;;;;;;;;;;;;17.73;63.67;102270.91;5084188;28;1161;-75
2021/03/02 09:39:43;;;;;;;;;;;;;;;17.72;63.74;102271.78;5090438;28;841;-75
2021/03/02 09:42:16;;;;;;;;;;;;;;;17.71;63.70;102278.00;5090446;28;1506;-76
2021/03/02 09:44:46;;;;;;;;;;;;;;;17.69;63.72;102286.84;5090900;28;820;-76
2021/03/02 09:47:18;;;;;;;;;;;;;;;17.87;63.37;102289.81;5072675;28;1300;-80
2021/03/02 09:49:46;;;;;;;;;;;;;;;17.90;63.21;102296.78;5090306;28;1299;-78
2021/03/02 09:52:25;;;;;;;;;;;;;;;17.92;63.64;102301.09;5072036;28;1994;-76
2021/03/02 09:55:26;;;;;;;;;;;;;;;17.98;63.61;102306.19;5090257;28;1342;-77
2021/03/02 09:57:57;;;;;;;;;;;;;;;17.85;64.17;102312.72;5050640;28;1203;-76
2021/03/02 10:00:25;;;;;;;;;;;;;;;17.76;64.27;102307.72;5087376;28;1343;-80
2021/03/02 10:02:53;;;;;;;;;;;;;;;17.74;64.23;102319.22;5073304;28;1229;-82
2021/03/02 10:05:33;;;;;;;;;;;;;;;17.68;64.33;102314.97;5090622;28;1261;-80
2021/03/02 10:07:59;;;;;;;;;;;;;;;17.69;64.08;102321.97;5089802;28;1239;-77
2021/03/02 10:10:35;;;;;;;;;;;;;;;17.66;64.39;102319.41;5090742;28;1978;-79
2021/03/02 10:13:01;;;;;;;;;;;;;;;17.66;64.58;102315.94;5090562;28;1147;-78
2021/03/02 10:15:27;;;;;;;;;;;;;;;17.63;64.64;102323.91;5090698;28;1394;-78
2021/03/02 10:17:53;;;;;;;;;;;;;;;17.63;64.64;102316.03;5089066;28;1353;-80
2021/03/02 10:20:20;;;;;;;;;;;;;;;17.61;64.72;102312.53;5072672;28;1287;-77
2021/03/02 10:22:46;;;;;;;;;;;;;;;17.60;64.84;102314.31;5090428;28;1138;-80
2021/03/02 10:25:13;;;;;;;;;;;;;;;17.62;64.76;102320.41;5090672;28;1340;-81
2021/03/02 10:27:42;;;;;;;;;;;;;;;17.58;64.71;102310.84;5090566;28;1045;-77
2021/03/02 10:30:09;;;;;;;;;;;;;;;17.57;64.62;102317.03;5071291;28;1910;-75
2021/03/02 10:32:36;;;;;;;;;;;;;;;17.69;64.38;102318.47;5071916;28;1215;-76
2021/03/02 10:35:03;;;;;;;;;;;;;;;17.82;64.43;102317.22;5089676;28;1236;-77
2021/03/02 10:37:29;;;;;;;;;;;;;;;17.67;61.14;102315.00;5088126;28;906;-70
2021/03/02 10:39:55;;;;;;;;;;;;;;;17.47;59.33;102316.41;5086246;28;1283;-69
2021/03/02 10:42:21;;;;;;;;;;;;;;;17.34;59.01;102301.81;5088828;28;1023;-71
2021/03/02 10:44:48;;;;;;;;;;;;;;;17.33;58.50;102301.84;5093599;28;1558;-68
2021/03/02 10:47:14;;;;;;;;;;;;;;;17.34;58.86;102304.47;5035497;28;1207;-67
2021/03/02 10:49:41;;;;;;;;;;;;;;;17.32;58.18;102306.28;5073418;28;1278;-68
2021/03/02 10:52:07;;;;;;;;;;;;;;;17.31;60.21;102298.41;5102303;28;1925;-67
2021/03/02 10:54:33;;;;;;;;;;;;;;;17.26;57.92;102292.41;5084215;28;912;-68
2021/03/02 10:57:00;;;;;;;;;;;;;;;17.14;57.78;102296.22;5050663;28;1431;-68
2021/03/02 10:59:26;;;;;;;;;;;;;;;17.16;58.20;102288.28;5058625;28;953;-67
2021/03/02 11:01:52;;;;;;;;;;;;;;;17.06;58.32;102294.66;5067076;28;1392;-69
2021/03/02 11:04:19;;;;;;;;;;;;;;;17.06;58.03;102287.66;5081143;28;1160;-67
2021/03/02 11:06:45;;;;;;;;;;;;;;;17.05;58.18;102283.31;5050935;28;1233;-65
2021/03/02 11:09:31;;;;;;;;;;;;;;;17.05;57.94;102287.69;5060935;28;1321;-67
2021/03/02 11:11:57;;;;;;;;;;;;;;;17.05;58.17;102288.56;5108859;28;1929;-68
2021/03/02 11:14:23;;;;;;;;;;;;;;;17.06;58.40;102284.13;5091011;28;1150;-72
2021/03/02 11:16:49;;;;;;;;;;;;;;;17.14;58.41;102275.16;5086805;28;1611;-68
2021/03/02 11:19:16;;;;;;;;;;;;;;;17.20;59.87;102272.38;5069330;28;1066;-69
2021/03/02 11:21:42;;;;;;;;;;;;;;;17.29;60.18;102273.88;5068704;28;1305;-66
2021/03/02 11:24:08;;;;;;;;;;;;;;;17.33;60.30;102264.97;5087166;28;1052;-66
2021/03/02 11:26:35;;;;;;;;;;;;;;;17.39;59.73;102270.06;5068038;28;1327;-67
2021/03/02 11:29:01;;;;;;;;;;;;;;;17.41;59.93;102279.69;5081657;28;1697;-67
2021/03/02 11:31:27;;;;;;;;;;;;;;;17.46;60.25;102287.44;5091287;28;1976;-66
2021/03/02 11:33:54;;;;;;;;;;;;;;;17.49;60.48;102287.38;5074494;28;1200;-68
2021/03/02 11:36:20;;;;;;;;;;;;;;;17.51;60.87;102290.81;5060415;28;1289;-66
2021/03/02 11:38:47;;;;;;;;;;;;;;;17.56;60.76;102293.38;5108662;28;845;-71
2021/03/02 11:41:16;;;;;;;;;;;;;;;17.80;60.76;102293.53;5071028;28;1366;-67
2021/03/02 11:43:42;;;;;;;;;;;;;;;17.74;60.84;102272.63;5079522;28;1581;-65
2021/03/02 11:46:08;;;;;;;;;;;;;;;17.75;60.79;102276.13;5073050;28;1299;-67
2021/03/02 11:48:34;;;;;;;;;;;;;;;17.93;61.04;102283.50;5087015;28;1097;-69
2021/03/02 11:51:01;;;;;;;;;;;;;;;17.94;60.97;102280.81;5103174;28;1909;-69
2021/03/02 11:53:27;;;;;;;;;;;;;;;17.85;61.06;102283.72;5107388;28;849;-70
2021/03/02 11:55:53;;;;;;;;;;;;;;;17.82;61.16;102285.56;5072495;28;1264;-69
2021/03/02 11:58:20;;;;;;;;;;;;;;;17.79;61.46;102277.75;5067024;28;1183;-69
2021/03/02 12:00:46;;;;;;;;;;;;;;;17.78;61.70;102270.78;5066755;28;1276;-74
2021/03/02 12:03:17;;;;;;;;;;;;;;;17.78;61.68;102271.63;5064978;28;1300;-72
2021/03/02 12:05:44;;;;;;;;;;;;;;;17.82;61.77;102269.75;5101116;28;1412;-73
2021/03/02 12:08:12;;;;;;;;;;;;;;;17.83;61.69;102264.47;5088919;28;1335;-70
2021/03/02 12:10:38;;;;;;;;;;;;;;;17.85;61.68;102265.28;5089180;28;1910;-69
2021/03/02 12:13:05;;;;;;;;;;;;;;;17.94;62.02;102267.63;5108050;28;1479;-70
2021/03/02 12:15:31;;;;;;;;;;;;;;;17.94;61.98;102270.25;5107518;28;1286;-72
2021/03/02 12:17:57;;;;;;;;;;;;;;;17.91;62.02;102254.53;5108772;28;1179;-70
2021/03/02 12:20:24;;;;;;;;;;;;;;;17.88;61.91;102252.00;5097263;28;1339;-68
2021/03/02 12:22:50;;;;;;;;;;;;;;;17.90;62.24;102252.81;5069461;28;1079;-69
2021/03/02 12:25:16;;;;;;;;;;;;;;;17.91;61.96;102245.75;5096820;28;1300;-70
2021/03/02 12:27:43;;;;;;;;;;;;;;;17.92;62.05;102247.50;5107795;28;1003;-70
2021/03/02 12:30:10;;;;;;;;;;;;;;;17.91;61.90;102238.72;5069324;28;1341;-69
2021/03/02 12:32:37;;;;;;;;;;;;;;;17.90;61.94;102226.44;5068695;28;1981;-70
2021/03/02 12:35:05;;;;;;;;;;;;;;;17.90;61.98;102230.88;5078154;28;1364;-71
2021/03/02 12:37:31;;;;;;;;;;;;;;;17.91;61.81;102233.44;5065059;28;1255;-70
2021/03/02 12:39:57;;;;;;;;;;;;;;;17.91;62.38;102228.19;5092182;28;1284;-70
2021/03/02 12:42:23;;;;;;;;;;;;;;;17.92;62.32;102235.19;5067323;28;1049;-68
2021/03/02 12:44:49;;;;;;;;;;;;;;;17.93;62.31;102231.63;5056665;28;1505;-68
2021/03/02 12:47:15;;;;;;;;;;;;;;;17.94;62.38;102233.34;5089067;28;1207;-67
2021/03/02 12:49:42;;;;;;;;;;;;;;;17.96;62.42;102247.34;5092274;28;1131;-69
2021/03/02 12:52:10;;;;;;;;;;;;;;;18.00;62.37;102251.63;5087079;28;1995;-67
2021/03/02 12:54:37;;;;;;;;;;;;;;;18.02;62.66;102255.06;5086368;28;1053;-71